sensor_id;sensor_type;location;lat;lon;timestamp;P1;durP1;ratioP1;P2;durP2;ratioP2
9374;SDS011;4727;51.202;6.344;2023-05-07T00:01:35;12.93;;;11.63;;
9374;SDS011;4727;51.202;6.344;2023-05-07T00:04:01;13.43;;;12.07;;
9374;SDS011;4727;51.202;6.344;2023-05-07T00:06:28;12.27;;;11.17;;
9374;SDS011;4727;51.202;6.344;2023-05-07T00:08:54;12.27;;;11.17;;
9374;SDS011;4727;51.202;6.344;2023-05-07T00:11:20;13.47;;;11.90;;
9374;SDS011;4727;51.202;6.344;2023-05-07T00:13:47;12.00;;;10.87;;
9374;SDS011;4727;51.202;6.344;2023-05-07T00:16:13;11.50;;;10.30;;
9374;SDS011;4727;51.202;6.344;2023-05-07T00:18:39;12.53;;;11.33;;
9374;SDS011;4727;51.202;6.344;2023-05-07T00:21:05;12.53;;;11.40;;
9374;SDS011;4727;51.202;6.344;2023-05-07T00:23:31;12.73;;;10.70;;
9374;SDS011;4727;51.202;6.344;2023-05-07T00:25:57;12.37;;;11.07;;
9374;SDS011;4727;51.202;6.344;2023-05-07T00:28:23;14.43;;;11.73;;
9374;SDS011;4727;51.202;6.344;2023-05-07T00:30:49;11.57;;;10.57;;
9374;SDS011;4727;51.202;6.344;2023-05-07T00:33:15;12.17;;;11.17;;
9374;SDS011;4727;51.202;6.344;2023-05-07T00:35:41;12.23;;;10.60;;
9374;SDS011;4727;51.202;6.344;2023-05-07T00:38:07;11.53;;;10.40;;
9374;SDS011;4727;51.202;6.344;2023-05-07T00:40:33;10.93;;;9.93;;
9374;SDS011;4727;51.202;6.344;2023-05-07T00:42:59;11.93;;;10.77;;
9374;SDS011;4727;51.202;6.344;2023-05-07T00:45:26;11.07;;;10.10;;
9374;SDS011;4727;51.202;6.344;2023-05-07T00:47:54;11.57;;;10.47;;
9374;SDS011;4727;51.202;6.344;2023-05-07T00:50:20;11.80;;;10.60;;
9374;SDS011;4727;51.202;6.344;2023-05-07T00:52:46;12.03;;;10.27;;
9374;SDS011;4727;51.202;6.344;2023-05-07T00:55:12;11.57;;;10.37;;
9374;SDS011;4727;51.202;6.344;2023-05-07T00:57:39;10.60;;;9.53;;
9374;SDS011;4727;51.202;6.344;2023-05-07T01:00:06;10.33;;;9.27;;
9374;SDS011;4727;51.202;6.344;2023-05-07T01:02:34;10.70;;;9.63;;
9374;SDS011;4727;51.202;6.344;2023-05-07T01:05:00;11.43;;;10.43;;
9374;SDS011;4727;51.202;6.344;2023-05-07T01:07:26;10.30;;;9.30;;
9374;SDS011;4727;51.202;6.344;2023-05-07T01:09:52;10.07;;;9.07;;
9374;SDS011;4727;51.202;6.344;2023-05-07T01:12:20;10.13;;;9.17;;
9374;SDS011;4727;51.202;6.344;2023-05-07T01:14:46;9.47;;;8.63;;
9374;SDS011;4727;51.202;6.344;2023-05-07T01:17:14;9.43;;;8.53;;
9374;SDS011;4727;51.202;6.344;2023-05-07T01:19:40;9.27;;;8.43;;
9374;SDS011;4727;51.202;6.344;2023-05-07T01:22:08;9.17;;;8.23;;
9374;SDS011;4727;51.202;6.344;2023-05-07T01:24:36;9.60;;;8.43;;
9374;SDS011;4727;51.202;6.344;2023-05-07T01:27:02;9.20;;;8.20;;
9374;SDS011;4727;51.202;6.344;2023-05-07T01:29:28;11.30;;;8.23;;
9374;SDS011;4727;51.202;6.344;2023-05-07T01:31:56;8.77;;;7.83;;
9374;SDS011;4727;51.202;6.344;2023-05-07T01:34:22;9.50;;;8.23;;
9374;SDS011;4727;51.202;6.344;2023-05-07T01:36:51;9.07;;;8.27;;
9374;SDS011;4727;51.202;6.344;2023-05-07T01:39:18;9.53;;;8.60;;
9374;SDS011;4727;51.202;6.344;2023-05-07T01:41:44;9.57;;;8.57;;
9374;SDS011;4727;51.202;6.344;2023-05-07T01:44:10;9.90;;;8.97;;
9374;SDS011;4727;51.202;6.344;2023-05-07T01:46:38;10.70;;;8.10;;
9374;SDS011;4727;51.202;6.344;2023-05-07T01:49:04;10.57;;;8.43;;
9374;SDS011;4727;51.202;6.344;2023-05-07T01:51:30;12.10;;;9.00;;
9374;SDS011;4727;51.202;6.344;2023-05-07T01:53:56;10.33;;;9.43;;
9374;SDS011;4727;51.202;6.344;2023-05-07T01:56:22;9.57;;;8.67;;
9374;SDS011;4727;51.202;6.344;2023-05-07T01:58:49;10.10;;;9.20;;
9374;SDS011;4727;51.202;6.344;2023-05-07T02:01:16;9.93;;;9.07;;
9374;SDS011;4727;51.202;6.344;2023-05-07T02:03:42;9.40;;;7.97;;
9374;SDS011;4727;51.202;6.344;2023-05-07T02:06:08;10.60;;;9.60;;
9374;SDS011;4727;51.202;6.344;2023-05-07T02:08:34;9.73;;;8.73;;
9374;SDS011;4727;51.202;6.344;2023-05-07T02:11:00;9.53;;;8.63;;
9374;SDS011;4727;51.202;6.344;2023-05-07T02:13:29;10.30;;;9.33;;
9374;SDS011;4727;51.202;6.344;2023-05-07T02:15:56;10.23;;;9.23;;
9374;SDS011;4727;51.202;6.344;2023-05-07T02:18:22;10.10;;;9.20;;
9374;SDS011;4727;51.202;6.344;2023-05-07T02:20:48;9.53;;;8.63;;
9374;SDS011;4727;51.202;6.344;2023-05-07T02:23:14;11.63;;;9.83;;
9374;SDS011;4727;51.202;6.344;2023-05-07T02:25:40;10.60;;;9.50;;
9374;SDS011;4727;51.202;6.344;2023-05-07T02:28:06;10.33;;;9.33;;
9374;SDS011;4727;51.202;6.344;2023-05-07T02:30:32;10.80;;;9.80;;
9374;SDS011;4727;51.202;6.344;2023-05-07T02:32:58;9.57;;;8.77;;
9374;SDS011;4727;51.202;6.344;2023-05-07T02:35:24;9.53;;;8.73;;
9374;SDS011;4727;51.202;6.344;2023-05-07T02:37:50;10.50;;;9.50;;
9374;SDS011;4727;51.202;6.344;2023-05-07T02:40:16;10.50;;;8.83;;
9374;SDS011;4727;51.202;6.344;2023-05-07T02:42:42;9.70;;;8.70;;
9374;SDS011;4727;51.202;6.344;2023-05-07T02:45:08;9.40;;;8.50;;
9374;SDS011;4727;51.202;6.344;2023-05-07T02:47:35;10.13;;;9.13;;
9374;SDS011;4727;51.202;6.344;2023-05-07T02:50:01;10.97;;;9.20;;
9374;SDS011;4727;51.202;6.344;2023-05-07T02:52:27;9.73;;;8.77;;
9374;SDS011;4727;51.202;6.344;2023-05-07T02:54:53;9.93;;;9.03;;
9374;SDS011;4727;51.202;6.344;2023-05-07T02:57:19;9.43;;;8.57;;
9374;SDS011;4727;51.202;6.344;2023-05-07T02:59:45;10.00;;;9.07;;
9374;SDS011;4727;51.202;6.344;2023-05-07T03:02:11;10.40;;;8.80;;
9374;SDS011;4727;51.202;6.344;2023-05-07T03:04:37;9.80;;;8.80;;
9374;SDS011;4727;51.202;6.344;2023-05-07T03:07:03;11.67;;;9.70;;
9374;SDS011;4727;51.202;6.344;2023-05-07T03:09:29;11.03;;;9.43;;
9374;SDS011;4727;51.202;6.344;2023-05-07T03:11:56;10.90;;;9.80;;
9374;SDS011;4727;51.202;6.344;2023-05-07T03:14:22;10.70;;;9.70;;
9374;SDS011;4727;51.202;6.344;2023-05-07T03:16:48;10.87;;;9.70;;
9374;SDS011;4727;51.202;6.344;2023-05-07T03:19:14;11.23;;;10.13;;
9374;SDS011;4727;51.202;6.344;2023-05-07T03:21:40;10.40;;;9.37;;
9374;SDS011;4727;51.202;6.344;2023-05-07T03:24:06;10.57;;;9.67;;
9374;SDS011;4727;51.202;6.344;2023-05-07T03:26:32;9.60;;;8.73;;
9374;SDS011;4727;51.202;6.344;2023-05-07T03:28:58;10.13;;;9.13;;
9374;SDS011;4727;51.202;6.344;2023-05-07T03:31:25;10.37;;;9.47;;
9374;SDS011;4727;51.202;6.344;2023-05-07T03:33:51;10.37;;;9.47;;
9374;SDS011;4727;51.202;6.344;2023-05-07T03:36:17;10.17;;;9.27;;
9374;SDS011;4727;51.202;6.344;2023-05-07T03:38:43;9.87;;;9.07;;
9374;SDS011;4727;51.202;6.344;2023-05-07T03:41:09;13.83;;;9.63;;
9374;SDS011;4727;51.202;6.344;2023-05-07T03:43:35;10.90;;;9.80;;
9374;SDS011;4727;51.202;6.344;2023-05-07T03:46:01;10.67;;;9.57;;
9374;SDS011;4727;51.202;6.344;2023-05-07T03:48:27;10.47;;;9.57;;
9374;SDS011;4727;51.202;6.344;2023-05-07T03:50:53;11.80;;;10.50;;
9374;SDS011;4727;51.202;6.344;2023-05-07T03:53:19;10.87;;;9.97;;
9374;SDS011;4727;51.202;6.344;2023-05-07T03:55:45;11.27;;;10.03;;
9374;SDS011;4727;51.202;6.344;2023-05-07T03:58:11;11.40;;;10.10;;
9374;SDS011;4727;51.202;6.344;2023-05-07T04:00:37;11.03;;;10.03;;
9374;SDS011;4727;51.202;6.344;2023-05-07T04:03:04;12.33;;;9.77;;
9374;SDS011;4727;51.202;6.344;2023-05-07T04:05:30;11.30;;;10.30;;
9374;SDS011;4727;51.202;6.344;2023-05-07T04:07:59;10.83;;;9.83;;
9374;SDS011;4727;51.202;6.344;2023-05-07T04:10:26;10.83;;;9.67;;
9374;SDS011;4727;51.202;6.344;2023-05-07T04:12:53;11.03;;;10.03;;
9374;SDS011;4727;51.202;6.344;2023-05-07T04:15:19;12.03;;;10.83;;
9374;SDS011;4727;51.202;6.344;2023-05-07T04:17:45;11.40;;;10.30;;
9374;SDS011;4727;51.202;6.344;2023-05-07T04:20:15;12.60;;;10.37;;
9374;SDS011;4727;51.202;6.344;2023-05-07T04:22:41;10.97;;;9.93;;
9374;SDS011;4727;51.202;6.344;2023-05-07T04:25:07;10.47;;;9.57;;
9374;SDS011;4727;51.202;6.344;2023-05-07T04:27:37;10.87;;;9.97;;
9374;SDS011;4727;51.202;6.344;2023-05-07T04:30:03;11.00;;;9.93;;
9374;SDS011;4727;51.202;6.344;2023-05-07T04:32:29;10.43;;;9.53;;
9374;SDS011;4727;51.202;6.344;2023-05-07T04:34:58;10.57;;;9.67;;
9374;SDS011;4727;51.202;6.344;2023-05-07T04:37:25;11.47;;;9.80;;
9374;SDS011;4727;51.202;6.344;2023-05-07T04:39:51;11.23;;;10.03;;
9374;SDS011;4727;51.202;6.344;2023-05-07T04:42:17;10.70;;;9.70;;
9374;SDS011;4727;51.202;6.344;2023-05-07T04:44:44;10.17;;;9.27;;
9374;SDS011;4727;51.202;6.344;2023-05-07T04:47:10;11.00;;;10.00;;
9374;SDS011;4727;51.202;6.344;2023-05-07T04:49:36;10.20;;;9.23;;
9374;SDS011;4727;51.202;6.344;2023-05-07T04:52:02;10.77;;;9.67;;
9374;SDS011;4727;51.202;6.344;2023-05-07T04:54:29;10.13;;;9.13;;
9374;SDS011;4727;51.202;6.344;2023-05-07T04:56:55;12.07;;;10.40;;
9374;SDS011;4727;51.202;6.344;2023-05-07T04:59:21;10.97;;;9.87;;
9374;SDS011;4727;51.202;6.344;2023-05-07T05:01:47;11.50;;;10.30;;
9374;SDS011;4727;51.202;6.344;2023-05-07T05:04:13;10.53;;;9.63;;
9374;SDS011;4727;51.202;6.344;2023-05-07T05:06:39;10.53;;;9.53;;
9374;SDS011;4727;51.202;6.344;2023-05-07T05:09:05;10.87;;;9.77;;
9374;SDS011;4727;51.202;6.344;2023-05-07T05:11:31;11.07;;;10.07;;
9374;SDS011;4727;51.202;6.344;2023-05-07T05:13:59;13.50;;;9.97;;
9374;SDS011;4727;51.202;6.344;2023-05-07T05:16:25;10.63;;;9.63;;
9374;SDS011;4727;51.202;6.344;2023-05-07T05:18:51;10.27;;;9.20;;
9374;SDS011;4727;51.202;6.344;2023-05-07T05:21:19;10.87;;;9.83;;
9374;SDS011;4727;51.202;6.344;2023-05-07T05:23:45;9.73;;;8.87;;
9374;SDS011;4727;51.202;6.344;2023-05-07T05:26:11;10.10;;;9.10;;
9374;SDS011;4727;51.202;6.344;2023-05-07T05:28:37;10.60;;;9.60;;
9374;SDS011;4727;51.202;6.344;2023-05-07T05:31:04;10.03;;;9.13;;
9374;SDS011;4727;51.202;6.344;2023-05-07T05:33:30;10.07;;;9.00;;
9374;SDS011;4727;51.202;6.344;2023-05-07T05:35:56;10.33;;;9.33;;
9374;SDS011;4727;51.202;6.344;2023-05-07T05:38:22;9.87;;;8.87;;
9374;SDS011;4727;51.202;6.344;2023-05-07T05:40:48;10.20;;;9.10;;
9374;SDS011;4727;51.202;6.344;2023-05-07T05:43:14;10.10;;;9.20;;
9374;SDS011;4727;51.202;6.344;2023-05-07T05:45:40;9.30;;;8.33;;
9374;SDS011;4727;51.202;6.344;2023-05-07T05:48:06;11.33;;;8.97;;
9374;SDS011;4727;51.202;6.344;2023-05-07T05:50:33;9.70;;;8.80;;
9374;SDS011;4727;51.202;6.344;2023-05-07T05:53:00;9.73;;;8.73;;
9374;SDS011;4727;51.202;6.344;2023-05-07T05:55:26;8.97;;;8.07;;
9374;SDS011;4727;51.202;6.344;2023-05-07T05:57:52;10.37;;;8.40;;
9374;SDS011;4727;51.202;6.344;2023-05-07T06:00:18;9.57;;;8.63;;
9374;SDS011;4727;51.202;6.344;2023-05-07T06:02:47;9.50;;;8.53;;
9374;SDS011;4727;51.202;6.344;2023-05-07T06:05:13;11.50;;;9.10;;
9374;SDS011;4727;51.202;6.344;2023-05-07T06:07:39;10.47;;;8.63;;
9374;SDS011;4727;51.202;6.344;2023-05-07T06:10:06;9.73;;;8.83;;
9374;SDS011;4727;51.202;6.344;2023-05-07T06:12:32;10.00;;;8.90;;
9374;SDS011;4727;51.202;6.344;2023-05-07T06:14:58;9.87;;;8.90;;
9374;SDS011;4727;51.202;6.344;2023-05-07T06:17:24;9.43;;;8.53;;
9374;SDS011;4727;51.202;6.344;2023-05-07T06:19:50;9.40;;;8.60;;
9374;SDS011;4727;51.202;6.344;2023-05-07T06:22:16;9.83;;;8.87;;
9374;SDS011;4727;51.202;6.344;2023-05-07T06:24:42;9.47;;;8.60;;
9374;SDS011;4727;51.202;6.344;2023-05-07T06:27:08;9.30;;;8.40;;
9374;SDS011;4727;51.202;6.344;2023-05-07T06:29:34;8.90;;;8.10;;
9374;SDS011;4727;51.202;6.344;2023-05-07T06:32:07;10.37;;;9.30;;
9374;SDS011;4727;51.202;6.344;2023-05-07T06:34:33;10.63;;;8.77;;
9374;SDS011;4727;51.202;6.344;2023-05-07T06:36:59;9.17;;;8.10;;
9374;SDS011;4727;51.202;6.344;2023-05-07T06:39:26;9.50;;;8.70;;
9374;SDS011;4727;51.202;6.344;2023-05-07T06:41:51;9.50;;;8.53;;
9374;SDS011;4727;51.202;6.344;2023-05-07T06:44:17;10.13;;;8.30;;
9374;SDS011;4727;51.202;6.344;2023-05-07T06:46:43;9.80;;;8.90;;
9374;SDS011;4727;51.202;6.344;2023-05-07T06:49:10;8.87;;;8.13;;
9374;SDS011;4727;51.202;6.344;2023-05-07T06:51:36;8.67;;;7.77;;
9374;SDS011;4727;51.202;6.344;2023-05-07T06:54:02;8.00;;;7.30;;
9374;SDS011;4727;51.202;6.344;2023-05-07T06:56:29;8.00;;;7.30;;
9374;SDS011;4727;51.202;6.344;2023-05-07T06:58:55;8.10;;;7.27;;
9374;SDS011;4727;51.202;6.344;2023-05-07T07:01:21;7.67;;;7.00;;
9374;SDS011;4727;51.202;6.344;2023-05-07T07:03:47;7.80;;;6.60;;
9374;SDS011;4727;51.202;6.344;2023-05-07T07:06:13;6.87;;;6.20;;
9374;SDS011;4727;51.202;6.344;2023-05-07T07:08:39;6.50;;;5.80;;
9374;SDS011;4727;51.202;6.344;2023-05-07T07:11:05;6.40;;;5.60;;
9374;SDS011;4727;51.202;6.344;2023-05-07T07:13:31;6.83;;;6.13;;
9374;SDS011;4727;51.202;6.344;2023-05-07T07:15:57;6.63;;;5.50;;
9374;SDS011;4727;51.202;6.344;2023-05-07T07:18:23;6.33;;;5.73;;
9374;SDS011;4727;51.202;6.344;2023-05-07T07:20:49;6.47;;;5.87;;
9374;SDS011;4727;51.202;6.344;2023-05-07T07:23:15;7.37;;;5.87;;
9374;SDS011;4727;51.202;6.344;2023-05-07T07:25:41;6.60;;;6.00;;
9374;SDS011;4727;51.202;6.344;2023-05-07T07:28:07;5.80;;;5.33;;
9374;SDS011;4727;51.202;6.344;2023-05-07T07:30:33;6.20;;;5.40;;
9374;SDS011;4727;51.202;6.344;2023-05-07T07:32:59;5.80;;;5.20;;
9374;SDS011;4727;51.202;6.344;2023-05-07T07:35:28;5.93;;;5.33;;
9374;SDS011;4727;51.202;6.344;2023-05-07T07:37:54;5.30;;;4.83;;
9374;SDS011;4727;51.202;6.344;2023-05-07T07:40:20;5.83;;;5.33;;
9374;SDS011;4727;51.202;6.344;2023-05-07T07:42:46;6.23;;;5.63;;
9374;SDS011;4727;51.202;6.344;2023-05-07T07:45:12;5.23;;;4.73;;
9374;SDS011;4727;51.202;6.344;2023-05-07T07:47:39;4.90;;;4.50;;
9374;SDS011;4727;51.202;6.344;2023-05-07T07:50:05;5.90;;;5.40;;
9374;SDS011;4727;51.202;6.344;2023-05-07T07:52:31;5.60;;;4.83;;
9374;SDS011;4727;51.202;6.344;2023-05-07T07:54:57;7.53;;;6.53;;
9374;SDS011;4727;51.202;6.344;2023-05-07T07:57:23;5.27;;;4.50;;
9374;SDS011;4727;51.202;6.344;2023-05-07T07:59:49;5.53;;;4.77;;
9374;SDS011;4727;51.202;6.344;2023-05-07T08:02:16;5.20;;;4.80;;
9374;SDS011;4727;51.202;6.344;2023-05-07T08:04:42;5.63;;;5.13;;
9374;SDS011;4727;51.202;6.344;2023-05-07T08:07:09;5.60;;;5.10;;
9374;SDS011;4727;51.202;6.344;2023-05-07T08:09:35;4.93;;;4.53;;
9374;SDS011;4727;51.202;6.344;2023-05-07T08:12:01;5.03;;;4.23;;
9374;SDS011;4727;51.202;6.344;2023-05-07T08:14:27;5.10;;;4.60;;
9374;SDS011;4727;51.202;6.344;2023-05-07T08:16:53;5.00;;;4.57;;
9374;SDS011;4727;51.202;6.344;2023-05-07T08:19:20;4.30;;;3.90;;
9374;SDS011;4727;51.202;6.344;2023-05-07T08:21:46;5.80;;;4.40;;
9374;SDS011;4727;51.202;6.344;2023-05-07T08:24:13;5.90;;;4.47;;
9374;SDS011;4727;51.202;6.344;2023-05-07T08:26:39;4.83;;;4.30;;
9374;SDS011;4727;51.202;6.344;2023-05-07T08:29:05;4.23;;;3.90;;
9374;SDS011;4727;51.202;6.344;2023-05-07T08:31:31;4.63;;;4.27;;
9374;SDS011;4727;51.202;6.344;2023-05-07T08:33:57;4.87;;;4.47;;
9374;SDS011;4727;51.202;6.344;2023-05-07T08:36:23;4.37;;;4.00;;
9374;SDS011;4727;51.202;6.344;2023-05-07T08:38:50;4.00;;;3.70;;
9374;SDS011;4727;51.202;6.344;2023-05-07T08:41:16;4.27;;;3.87;;
9374;SDS011;4727;51.202;6.344;2023-05-07T08:43:42;4.30;;;3.90;;
9374;SDS011;4727;51.202;6.344;2023-05-07T08:46:11;4.20;;;3.80;;
9374;SDS011;4727;51.202;6.344;2023-05-07T08:48:37;4.20;;;3.80;;
9374;SDS011;4727;51.202;6.344;2023-05-07T08:51:03;4.03;;;3.70;;
9374;SDS011;4727;51.202;6.344;2023-05-07T08:53:29;4.47;;;4.03;;
9374;SDS011;4727;51.202;6.344;2023-05-07T08:55:55;5.17;;;4.47;;
9374;SDS011;4727;51.202;6.344;2023-05-07T08:58:21;4.83;;;3.70;;
9374;SDS011;4727;51.202;6.344;2023-05-07T09:00:47;5.07;;;3.63;;
9374;SDS011;4727;51.202;6.344;2023-05-07T09:03:13;4.03;;;3.63;;
9374;SDS011;4727;51.202;6.344;2023-05-07T09:05:39;3.77;;;3.47;;
9374;SDS011;4727;51.202;6.344;2023-05-07T09:08:06;4.00;;;3.63;;
9374;SDS011;4727;51.202;6.344;2023-05-07T09:10:33;6.47;;;3.60;;
9374;SDS011;4727;51.202;6.344;2023-05-07T09:12:59;3.87;;;3.20;;
9374;SDS011;4727;51.202;6.344;2023-05-07T09:15:26;3.40;;;3.10;;
9374;SDS011;4727;51.202;6.344;2023-05-07T09:17:52;4.90;;;4.20;;
9374;SDS011;4727;51.202;6.344;2023-05-07T09:20:17;4.80;;;4.03;;
9374;SDS011;4727;51.202;6.344;2023-05-07T09:22:43;3.77;;;3.47;;
9374;SDS011;4727;51.202;6.344;2023-05-07T09:25:09;4.43;;;3.40;;
9374;SDS011;4727;51.202;6.344;2023-05-07T09:27:35;3.03;;;2.83;;
9374;SDS011;4727;51.202;6.344;2023-05-07T09:30:05;3.00;;;2.87;;
9374;SDS011;4727;51.202;6.344;2023-05-07T09:32:34;3.43;;;2.70;;
9374;SDS011;4727;51.202;6.344;2023-05-07T09:35:00;3.10;;;2.90;;
9374;SDS011;4727;51.202;6.344;2023-05-07T09:37:28;3.40;;;3.07;;
9374;SDS011;4727;51.202;6.344;2023-05-07T09:39:56;3.33;;;3.03;;
9374;SDS011;4727;51.202;6.344;2023-05-07T09:42:25;3.30;;;3.00;;
9374;SDS011;4727;51.202;6.344;2023-05-07T09:44:51;4.87;;;2.80;;
9374;SDS011;4727;51.202;6.344;2023-05-07T09:47:18;3.00;;;2.80;;
9374;SDS011;4727;51.202;6.344;2023-05-07T09:49:46;3.20;;;2.90;;
9374;SDS011;4727;51.202;6.344;2023-05-07T09:52:13;2.80;;;2.60;;
9374;SDS011;4727;51.202;6.344;2023-05-07T09:54:39;3.07;;;2.67;;
9374;SDS011;4727;51.202;6.344;2023-05-07T09:57:08;3.73;;;3.10;;
9374;SDS011;4727;51.202;6.344;2023-05-07T09:59:37;2.87;;;2.67;;
9374;SDS011;4727;51.202;6.344;2023-05-07T10:02:03;3.00;;;2.80;;
9374;SDS011;4727;51.202;6.344;2023-05-07T10:04:30;3.40;;;2.70;;
9374;SDS011;4727;51.202;6.344;2023-05-07T10:06:57;3.20;;;2.63;;
9374;SDS011;4727;51.202;6.344;2023-05-07T10:09:23;3.10;;;2.80;;
9374;SDS011;4727;51.202;6.344;2023-05-07T10:11:49;3.37;;;3.07;;
9374;SDS011;4727;51.202;6.344;2023-05-07T10:14:16;3.17;;;2.80;;
9374;SDS011;4727;51.202;6.344;2023-05-07T10:16:42;3.40;;;3.10;;
9374;SDS011;4727;51.202;6.344;2023-05-07T10:19:09;3.83;;;2.83;;
9374;SDS011;4727;51.202;6.344;2023-05-07T10:21:39;2.53;;;2.33;;
9374;SDS011;4727;51.202;6.344;2023-05-07T10:24:08;3.23;;;3.00;;
9374;SDS011;4727;51.202;6.344;2023-05-07T10:26:42;2.60;;;2.40;;
9374;SDS011;4727;51.202;6.344;2023-05-07T10:29:14;2.70;;;2.43;;
9374;SDS011;4727;51.202;6.344;2023-05-07T10:34:17;2.30;;;2.20;;
9374;SDS011;4727;51.202;6.344;2023-05-07T10:36:43;2.37;;;2.27;;
9374;SDS011;4727;51.202;6.344;2023-05-07T10:39:10;3.33;;;2.50;;
9374;SDS011;4727;51.202;6.344;2023-05-07T10:41:36;2.75;;;2.55;;
9374;SDS011;4727;51.202;6.344;2023-05-07T10:44:02;2.43;;;2.27;;
9374;SDS011;4727;51.202;6.344;2023-05-07T10:46:28;2.30;;;2.20;;
9374;SDS011;4727;51.202;6.344;2023-05-07T10:51:30;2.70;;;2.00;;
9374;SDS011;4727;51.202;6.344;2023-05-07T10:54:30;2.88;;;2.38;;
9374;SDS011;4727;51.202;6.344;2023-05-07T10:56:49;2.60;;;2.17;;
9374;SDS011;4727;51.202;6.344;2023-05-07T11:04:25;1.85;;;1.75;;
9374;SDS011;4727;51.202;6.344;2023-05-07T11:15:06;2.70;;;2.50;;
9374;SDS011;4727;51.202;6.344;2023-05-07T11:17:32;3.47;;;2.50;;
9374;SDS011;4727;51.202;6.344;2023-05-07T11:20:00;2.65;;;2.47;;
9374;SDS011;4727;51.202;6.344;2023-05-07T11:25:00;2.83;;;2.40;;
9374;SDS011;4727;51.202;6.344;2023-05-07T11:27:27;2.65;;;2.45;;
9374;SDS011;4727;51.202;6.344;2023-05-07T11:29:53;2.72;;;2.50;;
9374;SDS011;4727;51.202;6.344;2023-05-07T11:32:22;2.38;;;2.17;;
9374;SDS011;4727;51.202;6.344;2023-05-07T11:34:52;2.55;;;2.33;;
9374;SDS011;4727;51.202;6.344;2023-05-07T11:37:19;2.80;;;2.20;;
9374;SDS011;4727;51.202;6.344;2023-05-07T11:39:45;3.05;;;1.83;;
9374;SDS011;4727;51.202;6.344;2023-05-07T11:42:31;2.80;;;2.35;;
9374;SDS011;4727;51.202;6.344;2023-05-07T11:44:58;2.63;;;2.00;;
9374;SDS011;4727;51.202;6.344;2023-05-07T11:47:24;2.08;;;1.70;;
9374;SDS011;4727;51.202;6.344;2023-05-07T11:49:51;2.83;;;2.63;;
9374;SDS011;4727;51.202;6.344;2023-05-07T11:52:19;2.90;;;2.50;;
9374;SDS011;4727;51.202;6.344;2023-05-07T11:54:55;4.28;;;2.97;;
9374;SDS011;4727;51.202;6.344;2023-05-07T11:57:25;3.45;;;3.20;;
9374;SDS011;4727;51.202;6.344;2023-05-07T11:59:54;3.50;;;3.20;;
9374;SDS011;4727;51.202;6.344;2023-05-07T12:02:20;3.03;;;2.83;;
9374;SDS011;4727;51.202;6.344;2023-05-07T12:04:46;4.10;;;3.25;;
9374;SDS011;4727;51.202;6.344;2023-05-07T12:07:15;2.78;;;2.67;;
9374;SDS011;4727;51.202;6.344;2023-05-07T12:09:41;3.35;;;3.15;;
9374;SDS011;4727;51.202;6.344;2023-05-07T12:12:07;2.88;;;2.67;;
9374;SDS011;4727;51.202;6.344;2023-05-07T12:14:40;2.70;;;2.50;;
9374;SDS011;4727;51.202;6.344;2023-05-07T12:17:10;2.80;;;2.60;;
9374;SDS011;4727;51.202;6.344;2023-05-07T12:19:37;2.70;;;2.50;;
9374;SDS011;4727;51.202;6.344;2023-05-07T12:22:04;2.83;;;2.73;;
9374;SDS011;4727;51.202;6.344;2023-05-07T12:24:43;3.58;;;3.28;;
9374;SDS011;4727;51.202;6.344;2023-05-07T12:27:13;4.38;;;3.25;;
9374;SDS011;4727;51.202;6.344;2023-05-07T12:29:39;4.03;;;3.30;;
9374;SDS011;4727;51.202;6.344;2023-05-07T12:32:12;3.13;;;2.83;;
9374;SDS011;4727;51.202;6.344;2023-05-07T12:34:45;2.55;;;2.35;;
9374;SDS011;4727;51.202;6.344;2023-05-07T12:37:12;2.78;;;2.58;;
9374;SDS011;4727;51.202;6.344;2023-05-07T12:39:38;3.28;;;2.97;;
9374;SDS011;4727;51.202;6.344;2023-05-07T12:42:04;2.72;;;2.53;;
9374;SDS011;4727;51.202;6.344;2023-05-07T12:44:34;3.10;;;2.80;;
9374;SDS011;4727;51.202;6.344;2023-05-07T12:47:03;3.15;;;2.95;;
9374;SDS011;4727;51.202;6.344;2023-05-07T12:49:29;3.35;;;3.10;;
9374;SDS011;4727;51.202;6.344;2023-05-07T12:51:55;3.40;;;3.10;;
9374;SDS011;4727;51.202;6.344;2023-05-07T12:54:33;3.20;;;2.90;;
9374;SDS011;4727;51.202;6.344;2023-05-07T12:57:07;4.50;;;3.20;;
9374;SDS011;4727;51.202;6.344;2023-05-07T12:59:36;3.40;;;2.97;;
9374;SDS011;4727;51.202;6.344;2023-05-07T13:02:03;3.20;;;3.00;;
9374;SDS011;4727;51.202;6.344;2023-05-07T13:04:29;2.93;;;2.73;;
9374;SDS011;4727;51.202;6.344;2023-05-07T13:06:55;3.70;;;2.92;;
9374;SDS011;4727;51.202;6.344;2023-05-07T13:09:21;2.50;;;2.38;;
9374;SDS011;4727;51.202;6.344;2023-05-07T13:11:47;3.00;;;2.70;;
9374;SDS011;4727;51.202;6.344;2023-05-07T13:14:13;3.23;;;2.57;;
9374;SDS011;4727;51.202;6.344;2023-05-07T13:16:39;3.03;;;2.75;;
9374;SDS011;4727;51.202;6.344;2023-05-07T13:19:05;3.22;;;2.92;;
9374;SDS011;4727;51.202;6.344;2023-05-07T13:21:31;4.97;;;3.00;;
9374;SDS011;4727;51.202;6.344;2023-05-07T13:23:57;3.03;;;2.60;;
9374;SDS011;4727;51.202;6.344;2023-05-07T13:26:24;2.80;;;2.55;;
9374;SDS011;4727;51.202;6.344;2023-05-07T13:28:50;2.78;;;2.53;;
9374;SDS011;4727;51.202;6.344;2023-05-07T13:31:17;3.30;;;3.00;;
9374;SDS011;4727;51.202;6.344;2023-05-07T13:33:43;3.23;;;2.93;;
9374;SDS011;4727;51.202;6.344;2023-05-07T13:36:09;3.15;;;2.67;;
9374;SDS011;4727;51.202;6.344;2023-05-07T13:38:35;3.22;;;3.00;;
9374;SDS011;4727;51.202;6.344;2023-05-07T13:41:01;3.42;;;3.03;;
9374;SDS011;4727;51.202;6.344;2023-05-07T13:43:27;4.20;;;3.28;;
9374;SDS011;4727;51.202;6.344;2023-05-07T13:45:53;3.30;;;3.00;;
9374;SDS011;4727;51.202;6.344;2023-05-07T13:48:19;4.53;;;3.67;;
9374;SDS011;4727;51.202;6.344;2023-05-07T13:50:45;2.83;;;2.60;;
9374;SDS011;4727;51.202;6.344;2023-05-07T13:53:11;3.70;;;2.90;;
9374;SDS011;4727;51.202;6.344;2023-05-07T13:55:37;3.00;;;2.80;;
9374;SDS011;4727;51.202;6.344;2023-05-07T13:58:03;3.93;;;3.70;;
9374;SDS011;4727;51.202;6.344;2023-05-07T14:00:29;5.40;;;4.87;;
9374;SDS011;4727;51.202;6.344;2023-05-07T14:02:55;3.80;;;3.50;;
9374;SDS011;4727;51.202;6.344;2023-05-07T14:05:22;4.33;;;3.40;;
9374;SDS011;4727;51.202;6.344;2023-05-07T14:07:49;3.60;;;3.30;;
9374;SDS011;4727;51.202;6.344;2023-05-07T14:10:16;4.60;;;3.20;;
9374;SDS011;4727;51.202;6.344;2023-05-07T14:12:43;3.43;;;3.13;;
9374;SDS011;4727;51.202;6.344;2023-05-07T14:15:09;3.53;;;3.10;;
9374;SDS011;4727;51.202;6.344;2023-05-07T14:17:35;3.77;;;3.43;;
9374;SDS011;4727;51.202;6.344;2023-05-07T14:20:01;3.80;;;3.50;;
9374;SDS011;4727;51.202;6.344;2023-05-07T14:22:27;4.17;;;3.57;;
9374;SDS011;4727;51.202;6.344;2023-05-07T14:24:53;6.87;;;5.70;;
9374;SDS011;4727;51.202;6.344;2023-05-07T14:27:19;5.60;;;5.00;;
9374;SDS011;4727;51.202;6.344;2023-05-07T14:29:45;8.27;;;7.47;;
9374;SDS011;4727;51.202;6.344;2023-05-07T14:32:15;9.70;;;8.67;;
9374;SDS011;4727;51.202;6.344;2023-05-07T14:34:41;8.80;;;7.93;;
9374;SDS011;4727;51.202;6.344;2023-05-07T14:37:07;5.90;;;5.30;;
9374;SDS011;4727;51.202;6.344;2023-05-07T14:39:33;7.13;;;5.33;;
9374;SDS011;4727;51.202;6.344;2023-05-07T14:41:59;6.90;;;6.20;;
9374;SDS011;4727;51.202;6.344;2023-05-07T14:44:25;6.40;;;5.20;;
9374;SDS011;4727;51.202;6.344;2023-05-07T14:46:51;8.00;;;6.20;;
9374;SDS011;4727;51.202;6.344;2023-05-07T14:49:17;6.80;;;6.20;;
9374;SDS011;4727;51.202;6.344;2023-05-07T14:51:44;7.40;;;6.70;;
9374;SDS011;4727;51.202;6.344;2023-05-07T14:54:13;7.60;;;6.87;;
9374;SDS011;4727;51.202;6.344;2023-05-07T14:56:39;7.67;;;6.97;;
9374;SDS011;4727;51.202;6.344;2023-05-07T14:59:06;9.77;;;7.50;;
9374;SDS011;4727;51.202;6.344;2023-05-07T15:01:33;9.37;;;8.57;;
9374;SDS011;4727;51.202;6.344;2023-05-07T15:04:00;8.77;;;7.97;;
9374;SDS011;4727;51.202;6.344;2023-05-07T15:06:26;10.10;;;9.10;;
9374;SDS011;4727;51.202;6.344;2023-05-07T15:08:52;9.57;;;8.57;;
9374;SDS011;4727;51.202;6.344;2023-05-07T15:11:18;9.43;;;8.27;;
9374;SDS011;4727;51.202;6.344;2023-05-07T15:13:44;11.83;;;9.30;;
9374;SDS011;4727;51.202;6.344;2023-05-07T15:16:10;10.17;;;9.17;;
9374;SDS011;4727;51.202;6.344;2023-05-07T15:18:36;11.83;;;10.13;;
9374;SDS011;4727;51.202;6.344;2023-05-07T15:21:02;12.37;;;10.70;;
9374;SDS011;4727;51.202;6.344;2023-05-07T15:23:28;11.70;;;10.60;;
9374;SDS011;4727;51.202;6.344;2023-05-07T15:25:54;13.50;;;11.27;;
9374;SDS011;4727;51.202;6.344;2023-05-07T15:28:20;15.97;;;13.60;;